createdAt,value
2023-12-22T00:00:56.486Z,99901.91
2023-12-22T00:03:26.279Z,99893.22
2023-12-22T00:05:55.618Z,99906.72
2023-12-22T00:08:24.012Z,99904.06
2023-12-22T00:10:53.627Z,99902.63
2023-12-22T00:13:23.105Z,99906.47
2023-12-22T00:15:52.416Z,99911.78
2023-12-22T00:18:21.496Z,99943.59
2023-12-22T00:20:50.928Z,99927.69
2023-12-22T00:23:21.809Z,99945.03
2023-12-22T00:25:50.892Z,99952.75
2023-12-22T00:28:20.528Z,99987.94
2023-12-22T00:30:50.022Z,99974.69
2023-12-22T00:33:19.485Z,99968.66
2023-12-22T00:35:48.472Z,99988.44
2023-12-22T00:38:17.672Z,99966.56
2023-12-22T00:40:45.728Z,99967.25
2023-12-22T00:43:14.582Z,99962.66
2023-12-22T00:45:43.915Z,99975.19
2023-12-22T00:48:13.368Z,99972.56
2023-12-22T00:50:42.954Z,99977.84
2023-12-22T00:53:12.273Z,99977.84
2023-12-22T00:55:41.014Z,99965.09
2023-12-22T00:58:09.867Z,99974.97
2023-12-22T01:00:39.247Z,99969.69
2023-12-22T01:03:08.592Z,99985.59
2023-12-22T01:05:37.653Z,99974.28
2023-12-22T01:08:07.137Z,99961.53
2023-12-22T01:10:36.467Z,99973.56
2023-12-22T01:13:05.865Z,99994.75
2023-12-22T01:15:35.290Z,99986.81
2023-12-22T01:18:05.412Z,99990.00
2023-12-22T01:20:34.335Z,99986.63
2023-12-22T01:23:03.225Z,99993.31
2023-12-22T01:25:32.625Z,99991.94
2023-12-22T01:28:04.588Z,100002.53
2023-12-22T01:30:35.423Z,100002.53
2023-12-22T01:33:04.935Z,100016.28
2023-12-22T01:35:33.972Z,99995.09
2023-12-22T01:38:02.937Z,99989.78
2023-12-22T01:40:31.845Z,99997.22
2023-12-22T01:43:01.193Z,100006.38
2023-12-22T01:45:30.589Z,100010.97
2023-12-22T01:48:00.061Z,100001.06
2023-12-22T01:50:29.111Z,100007.59
2023-12-22T01:52:58.338Z,100007.59
2023-12-22T01:55:26.742Z,99994.38
2023-12-22T01:57:56.259Z,99989.06
2023-12-22T02:00:25.826Z,99999.66
2023-12-22T02:02:55.196Z,100004.97
2023-12-22T02:05:24.473Z,100004.97
2023-12-22T02:07:53.538Z,100014.13
2023-12-22T02:10:23.002Z,100014.13
2023-12-22T02:12:51.835Z,100024.72
2023-12-22T02:15:21.200Z,100035.31
2023-12-22T02:17:51.133Z,100031.47
2023-12-22T02:20:20.786Z,100024.00
2023-12-22T02:22:50.117Z,100012.69
2023-12-22T02:25:19.409Z,100007.41
2023-12-22T02:27:47.815Z,100002.09
2023-12-22T02:30:16.891Z,99988.84
2023-12-22T02:32:46.392Z,99987.63
2023-12-22T02:35:15.880Z,99998.22
2023-12-22T02:37:45.288Z,99992.22
2023-12-22T02:40:14.748Z,99986.19
2023-12-22T02:42:44.169Z,99975.59
2023-12-22T02:45:13.575Z,99971.53
2023-12-22T02:47:42.998Z,99967.66
2023-12-22T02:50:12.081Z,99952.97
2023-12-22T02:52:40.367Z,99966.22
2023-12-22T02:55:09.237Z,99943.78
2023-12-22T02:57:38.646Z,99947.69
2023-12-22T03:00:08.080Z,99943.78
2023-12-22T03:02:37.558Z,99942.38
2023-12-22T03:05:07.174Z,99937.09
2023-12-22T03:07:36.308Z,99938.31
2023-12-22T03:10:05.237Z,99958.28
2023-12-22T03:12:34.593Z,99960.22
2023-12-22T03:15:03.792Z,99966.94
2023-12-22T03:17:32.770Z,99962.16
2023-12-22T03:20:02.330Z,99978.06
2023-12-22T03:22:31.376Z,99978.78
2023-12-22T03:25:00.911Z,99998.53
2023-12-22T03:27:29.878Z,100036.34
2023-12-22T03:29:59.142Z,100005.75
2023-12-22T03:32:27.991Z,100017.81
2023-12-22T03:34:57.671Z,100007.00
2023-12-22T03:37:27.213Z,99993.75
2023-12-22T03:39:56.793Z,99998.53
2023-12-22T03:42:25.475Z,99995.66
2023-12-22T03:44:53.706Z,100022.88
2023-12-22T03:47:22.791Z,100018.78
2023-12-22T03:49:51.695Z,100022.88
2023-12-22T03:52:21.262Z,100052.03
2023-12-22T03:54:50.424Z,100063.84
2023-12-22T03:57:20.117Z,100059.97
2023-12-22T03:59:49.571Z,100073.03
2023-12-22T04:02:18.309Z,100073.03
2023-12-22T04:04:47.021Z,100057.16
2023-12-22T04:07:16.448Z,100042.44
2023-12-22T04:09:45.919Z,100039.78
2023-12-22T04:12:15.236Z,100034.50
2023-12-22T04:14:44.091Z,100029.19
2023-12-22T04:17:12.966Z,100039.78
2023-12-22T04:19:42.551Z,100049.66
2023-12-22T04:22:11.970Z,100047.75
2023-12-22T04:24:40.908Z,100029.19
2023-12-22T04:27:09.787Z,100050.41
2023-12-22T04:29:38.747Z,100047.75
2023-12-22T04:32:07.521Z,100048.97
2023-12-22T04:34:37.039Z,100043.69
2023-12-22T04:37:06.438Z,100059.56
2023-12-22T04:39:35.307Z,100038.38
2023-12-22T04:42:04.545Z,100037.66
2023-12-22T04:44:33.885Z,100035.72
2023-12-22T04:47:02.771Z,100030.44
2023-12-22T04:49:31.643Z,100022.47
2023-12-22T04:52:02.529Z,100032.34
2023-12-22T04:54:31.957Z,100043.69
2023-12-22T04:57:00.842Z,100048.97
2023-12-22T04:59:29.609Z,100066.28
2023-12-22T05:01:58.603Z,100060.28
2023-12-22T05:04:28.152Z,100059.56
2023-12-22T05:06:57.558Z,100050.41
2023-12-22T05:09:26.707Z,100063.66
2023-12-22T05:11:55.066Z,100054.28
2023-12-22T05:14:24.455Z,100054.28
2023-12-22T05:16:53.307Z,100059.56
2023-12-22T05:19:22.299Z,100054.28
2023-12-22T05:21:51.837Z,100055.69
2023-12-22T05:24:21.274Z,100042.44
2023-12-22T05:26:50.230Z,100045.09
2023-12-22T05:29:19.640Z,100046.53
2023-12-22T05:31:48.979Z,100042.44
2023-12-22T05:34:18.004Z,100042.63
2023-12-22T05:36:47.113Z,100046.53
2023-12-22T05:39:15.997Z,100035.94
2023-12-22T05:41:45.381Z,100030.66
2023-12-22T05:44:14.272Z,100035.94
2023-12-22T05:46:43.704Z,100030.66
2023-12-22T05:49:12.782Z,100033.28
2023-12-22T05:51:42.292Z,100029.91
2023-12-22T05:54:11.720Z,100017.41
2023-12-22T05:56:41.000Z,100025.34
2023-12-22T05:59:10.337Z,100030.66
2023-12-22T06:01:39.327Z,100032.03
2023-12-22T06:04:08.921Z,100031.34
2023-12-22T06:06:38.359Z,100030.66
2023-12-22T06:09:07.797Z,100032.03
2023-12-22T06:11:37.264Z,100026.75
2023-12-22T06:14:06.855Z,100026.75
2023-12-22T06:16:35.901Z,100016.13
2023-12-22T06:19:05.451Z,100010.84
2023-12-22T06:21:35.000Z,100022.16
2023-12-22T06:24:04.507Z,100012.09
2023-12-22T06:26:34.668Z,100018.78
2023-12-22T06:29:04.262Z,100033.50
2023-12-22T06:31:33.789Z,100021.44
2023-12-22T06:34:02.819Z,100023.59
2023-12-22T06:36:32.241Z,100017.59
2023-12-22T06:39:01.632Z,100022.88
2023-12-22T06:41:31.057Z,100020.44
2023-12-22T06:44:00.231Z,100013.00
2023-12-22T06:46:29.355Z,100019.00
2023-12-22T06:48:58.983Z,100015.16
2023-12-22T06:51:28.516Z,100012.50
2023-12-22T06:53:57.471Z,100015.16
2023-12-22T06:56:26.995Z,100009.84
2023-12-22T06:58:56.396Z,100005.97
2023-12-22T07:01:25.199Z,100005.97
2023-12-22T07:03:53.982Z,99995.38
2023-12-22T07:06:23.540Z,100011.28
2023-12-22T07:08:52.841Z,100011.28
2023-12-22T07:11:38.274Z,100007.41
2023-12-22T07:14:07.205Z,100004.75
2023-12-22T07:16:35.823Z,100007.41
2023-12-22T07:19:04.339Z,99998.03
2023-12-22T07:21:32.770Z,100013.41
2023-12-22T07:24:01.304Z,100024.72
2023-12-22T07:26:31.521Z,100020.84
2023-12-22T07:29:03.034Z,100030.75
2023-12-22T07:31:34.403Z,100040.63
2023-12-22T07:34:09.429Z,100026.16
2023-12-22T07:36:48.141Z,100026.16
2023-12-22T07:39:26.549Z,100031.47
2023-12-22T07:41:57.449Z,100022.28
2023-12-22T07:44:26.661Z,100027.59
2023-12-22T07:46:56.770Z,100018.44
2023-12-22T07:49:26.582Z,100017.69
2023-12-22T07:51:55.076Z,100015.78
2023-12-22T07:54:24.671Z,100003.91
2023-12-22T07:56:54.594Z,100011.88
2023-12-22T07:59:30.323Z,100042.47
2023-12-22T08:02:01.323Z,100045.13
2023-12-22T08:04:31.129Z,100036.44
2023-12-22T08:07:00.028Z,100043.88
2023-12-22T08:09:29.474Z,100022.69
2023-12-22T08:11:58.922Z,100020.75
2023-12-22T08:14:28.429Z,100024.13
2023-12-22T08:16:57.347Z,100018.13
2023-12-22T08:19:27.942Z,100019.56
2023-12-22T08:22:00.532Z,100030.84
2023-12-22T08:24:32.371Z,100026.97
2023-12-22T08:27:01.530Z,100028.63
2023-12-22T08:29:30.496Z,100022.09
2023-12-22T08:31:59.935Z,100016.81
2023-12-22T08:34:29.045Z,100006.19
2023-12-22T08:36:57.435Z,100003.56
2023-12-22T08:39:26.396Z,100001.09
2023-12-22T08:41:54.804Z,99999.88
2023-12-22T08:44:24.319Z,99995.28
2023-12-22T08:46:54.044Z,99997.44
2023-12-22T08:49:23.052Z,99996.19
2023-12-22T08:51:52.519Z,100001.69
2023-12-22T08:54:22.284Z,100002.09
2023-12-22T08:56:51.664Z,100003.56
2023-12-22T08:59:21.091Z,99985.22
2023-12-22T09:01:49.990Z,99982.03
2023-12-22T09:04:19.372Z,99975.00
2023-12-22T09:06:48.232Z,99983.16
2023-12-22T09:09:21.326Z,99973.97
2023-12-22T09:11:50.665Z,99989.88
2023-12-22T09:14:19.493Z,99989.88
2023-12-22T09:16:48.985Z,99995.16
2023-12-22T09:19:17.656Z,99990.59
2023-12-22T09:21:46.412Z,99989.16
2023-12-22T09:24:15.836Z,100000.47
2023-12-22T09:26:45.273Z,99987.03
2023-12-22T09:29:14.323Z,99983.69
2023-12-22T09:31:43.668Z,99962.94
2023-12-22T09:34:13.135Z,99984.88
2023-12-22T09:36:42.657Z,99983.94
2023-12-22T09:39:12.125Z,99997.19
2023-12-22T09:41:41.599Z,99979.91
2023-12-22T09:44:11.050Z,99986.41
2023-12-22T09:46:40.097Z,99987.66
2023-12-22T09:49:09.605Z,100004.25
2023-12-22T09:51:38.625Z,100007.41
2023-12-22T09:54:07.642Z,100000.69
2023-12-22T09:56:36.485Z,99989.38
2023-12-22T09:59:05.758Z,99987.44
2023-12-22T10:01:35.173Z,99980.91
2023-12-22T10:04:04.337Z,99990.09
2023-12-22T10:06:33.698Z,99972.22
2023-12-22T10:09:03.488Z,99969.56
2023-12-22T10:11:32.363Z,99977.03
2023-12-22T10:14:01.708Z,99989.06
2023-12-22T10:16:30.702Z,99983.75
2023-12-22T10:19:00.117Z,99993.84
2023-12-22T10:21:29.444Z,99994.78
2023-12-22T10:23:59.438Z,99986.81
2023-12-22T10:26:28.736Z,99975.00
2023-12-22T10:28:58.494Z,99980.50
2023-12-22T10:31:27.447Z,99986.72
2023-12-22T10:33:56.875Z,99962.34
2023-12-22T10:36:25.849Z,99990.06
2023-12-22T10:38:54.917Z,99974.16
2023-12-22T10:41:23.837Z,99976.13
2023-12-22T10:43:53.157Z,99973.97
2023-12-22T10:46:23.016Z,99958.78
2023-12-22T10:48:52.470Z,99975.41
2023-12-22T10:51:21.912Z,99965.53
2023-12-22T10:53:50.827Z,99976.13
2023-12-22T10:56:20.242Z,99971.50
2023-12-22T10:58:49.646Z,99983.56
2023-12-22T11:01:19.067Z,99979.69
2023-12-22T11:03:48.664Z,99981.53
2023-12-22T11:06:18.217Z,99972.72
2023-12-22T11:08:47.214Z,99974.88
2023-12-22T11:11:16.748Z,99966.41
2023-12-22T11:13:46.159Z,99966.63
2023-12-22T11:16:15.032Z,99966.28
2023-12-22T11:18:43.933Z,99965.78
2023-12-22T11:21:13.247Z,99961.16
2023-12-22T11:23:42.590Z,99958.41
2023-12-22T11:26:12.291Z,99960.97
2023-12-22T11:28:41.810Z,99971.97
2023-12-22T11:31:11.214Z,99969.19
2023-12-22T11:33:41.584Z,99971.53
2023-12-22T11:36:16.829Z,99960.41
2023-12-22T11:38:46.201Z,99973.50
2023-12-22T11:41:15.680Z,99969.91
2023-12-22T11:43:45.131Z,99964.22
2023-12-22T11:46:14.707Z,99963.09
2023-12-22T11:48:43.766Z,99969.63
2023-12-22T11:51:13.132Z,99960.97
2023-12-22T11:53:41.956Z,99973.00
2023-12-22T11:56:11.138Z,99952.88
2023-12-22T11:58:39.968Z,99957.16
2023-12-22T12:01:09.385Z,99953.97
2023-12-22T12:03:38.377Z,99954.72
2023-12-22T12:06:07.515Z,99949.41
2023-12-22T12:08:36.341Z,99950.13
2023-12-22T12:11:05.904Z,99934.00
2023-12-22T12:13:35.372Z,99933.09
2023-12-22T12:16:04.844Z,99924.91
2023-12-22T12:18:34.242Z,99915.72
2023-12-22T12:21:03.611Z,99907.56
2023-12-22T12:23:32.443Z,99894.28
2023-12-22T12:26:01.807Z,99895.56
2023-12-22T12:28:30.386Z,99899.44
2023-12-22T12:30:58.721Z,99895.75
2023-12-22T12:33:28.385Z,99907.56
2023-12-22T12:35:57.616Z,99896.94
2023-12-22T12:38:27.318Z,99906.16
2023-12-22T12:40:56.807Z,99914.66
2023-12-22T12:43:26.241Z,99907.56
2023-12-22T12:45:55.316Z,99911.88
2023-12-22T12:48:24.373Z,99918.97
2023-12-22T12:50:53.450Z,99905.91
2023-12-22T12:53:22.519Z,99900.59
2023-12-22T12:55:51.892Z,99894.06
2023-12-22T12:58:21.381Z,99911.63
2023-12-22T13:00:50.225Z,99913.44
2023-12-22T13:03:19.205Z,99911.34
2023-12-22T13:05:48.981Z,99921.13
2023-12-22T13:08:19.103Z,99921.34
2023-12-22T13:10:48.159Z,99906.63
2023-12-22T13:13:17.690Z,99929.09
2023-12-22T13:15:47.173Z,99928.91
2023-12-22T13:18:16.236Z,99912.78
2023-12-22T13:20:45.200Z,99920.38
2023-12-22T13:23:14.558Z,99927.94
2023-12-22T13:25:43.548Z,99919.06
2023-12-22T13:28:13.116Z,99927.56
2023-12-22T13:30:42.682Z,99930.00
2023-12-22T13:33:12.052Z,99927.16
2023-12-22T13:35:43.208Z,99925.00
2023-12-22T13:38:13.003Z,99922.16
2023-12-22T13:40:42.715Z,99932.03
2023-12-22T13:43:12.310Z,99929.94
2023-12-22T13:45:41.374Z,99946.53
2023-12-22T13:48:10.361Z,99929.38
2023-12-22T13:50:39.900Z,99933.47
2023-12-22T13:53:09.018Z,99940.91
2023-12-22T13:55:37.899Z,99928.91
2023-12-22T13:58:07.353Z,99925.31
2023-12-22T14:00:36.841Z,99927.78
2023-12-22T14:03:05.801Z,99926.84
2023-12-22T14:05:35.801Z,99936.56
2023-12-22T14:08:04.649Z,99936.34
2023-12-22T14:10:33.378Z,99932.28
2023-12-22T14:13:02.247Z,99950.69
2023-12-22T14:15:38.009Z,99926.59
2023-12-22T14:18:13.944Z,99944.97
2023-12-22T14:20:43.165Z,99939.94
2023-12-22T14:23:13.517Z,99943.31
2023-12-22T14:25:44.141Z,99959.06
2023-12-22T14:28:13.187Z,99953.03
2023-12-22T14:30:42.210Z,99972.09
2023-12-22T14:33:11.773Z,99966.81
2023-12-22T14:35:40.850Z,99951.72
2023-12-22T14:38:09.142Z,99967.84
2023-12-22T14:40:38.141Z,99967.84
2023-12-22T14:43:07.732Z,99977.00
2023-12-22T14:45:36.824Z,99986.22
2023-12-22T14:48:05.995Z,100001.41
2023-12-22T14:50:35.651Z,99992.53
2023-12-22T14:53:04.810Z,99977.81
2023-12-22T14:55:33.606Z,99969.88
2023-12-22T14:58:03.293Z,99979.06
2023-12-22T15:00:32.256Z,99987.03
2023-12-22T15:03:01.363Z,99982.91
2023-12-22T15:05:32.928Z,99992.13
2023-12-22T15:08:04.783Z,99994.56
2023-12-22T15:10:34.293Z,99994.34
2023-12-22T15:13:03.345Z,100018.22
2023-12-22T15:15:32.118Z,100006.91
2023-12-22T15:18:00.934Z,100012.91
2023-12-22T15:20:29.890Z,100019.47
2023-12-22T15:22:59.409Z,100012.75
2023-12-22T15:25:28.743Z,99998.75
2023-12-22T15:27:58.164Z,100004.06
2023-12-22T15:30:27.640Z,100014.66
2023-12-22T15:32:57.132Z,100005.28
2023-12-22T15:35:26.608Z,100011.28
2023-12-22T15:37:55.658Z,100023.13
2023-12-22T15:40:24.391Z,100029.16
2023-12-22T15:42:53.898Z,100037.59
2023-12-22T15:45:23.226Z,100034.94
2023-12-22T15:47:52.638Z,100046.78
2023-12-22T15:50:22.201Z,100041.47
2023-12-22T15:52:51.928Z,100036.16
2023-12-22T15:55:21.594Z,100037.41
2023-12-22T15:57:50.963Z,100046.78
2023-12-22T16:00:20.337Z,100034.75
2023-12-22T16:02:50.077Z,100045.34
2023-12-22T16:05:19.322Z,100049.25
2023-12-22T16:07:48.024Z,100046.38
2023-12-22T16:10:17.433Z,100059.13
2023-12-22T16:12:47.129Z,100049.03
2023-12-22T16:15:16.741Z,100064.41
2023-12-22T16:17:46.143Z,100053.09
2023-12-22T16:20:14.859Z,100047.56
2023-12-22T16:22:44.566Z,100058.41
2023-12-22T16:25:13.989Z,100059.84
2023-12-22T16:27:43.427Z,100063.69
2023-12-22T16:30:12.891Z,100064.41
2023-12-22T16:32:42.514Z,100079.59
2023-12-22T16:35:12.071Z,100063.69
2023-12-22T16:37:43.160Z,100064.94
2023-12-22T16:40:12.064Z,100066.13
2023-12-22T16:42:40.357Z,100084.22
2023-12-22T16:45:09.936Z,100067.59
2023-12-22T16:47:38.948Z,100083.50
2023-12-22T16:50:07.962Z,100069.00
2023-12-22T16:52:37.554Z,100059.63
2023-12-22T16:55:06.971Z,100072.88
2023-12-22T16:57:36.380Z,100067.59
2023-12-22T17:00:05.796Z,100077.78
2023-12-22T17:02:35.377Z,100083.50
2023-12-22T17:05:04.681Z,100080.84
2023-12-22T17:07:36.746Z,100071.44
2023-12-22T17:10:08.525Z,100064.94
2023-12-22T17:12:37.760Z,100081.06
2023-12-22T17:15:07.282Z,100083.50
2023-12-22T17:17:36.220Z,100072.88
2023-12-22T17:20:05.246Z,100099.41
2023-12-22T17:22:34.724Z,100096.75
2023-12-22T17:25:03.916Z,100100.81
2023-12-22T17:27:32.693Z,100099.41
2023-12-22T17:30:01.544Z,100099.41
2023-12-22T17:32:30.942Z,100116.50
2023-12-22T17:35:04.564Z,100113.84
2023-12-22T17:37:33.573Z,100120.63
2023-12-22T17:40:02.186Z,100116.50
2023-12-22T17:42:30.577Z,100129.75
2023-12-22T17:44:59.494Z,100118.47
2023-12-22T17:47:28.484Z,100129.75
2023-12-22T17:49:57.316Z,100124.47
2023-12-22T17:52:26.788Z,100141.09
2023-12-22T17:54:55.643Z,100136.53
2023-12-22T17:57:25.142Z,100146.41
2023-12-22T17:59:54.634Z,100133.69
2023-12-22T18:02:29.751Z,100141.81
2023-12-22T18:04:59.102Z,100161.59
2023-12-22T18:07:28.495Z,100164.97
2023-12-22T18:09:57.893Z,100166.88
2023-12-22T18:12:27.385Z,100135.06
2023-12-22T18:14:56.423Z,100152.44
2023-12-22T18:17:25.344Z,100141.09
2023-12-22T18:19:54.275Z,100172.91
2023-12-22T18:22:23.325Z,100168.34
2023-12-22T18:24:52.780Z,100157.72
2023-12-22T18:27:22.273Z,100158.44
2023-12-22T18:29:51.750Z,100163.03
2023-12-22T18:32:21.103Z,100174.38
2023-12-22T18:34:50.077Z,100167.59
2023-12-22T18:37:19.397Z,100182.78
2023-12-22T18:39:48.604Z,100182.78
2023-12-22T18:42:16.951Z,100216.56
2023-12-22T18:44:45.941Z,100223.81
2023-12-22T18:47:15.526Z,100233.69
2023-12-22T18:49:44.900Z,100213.22
2023-12-22T18:52:13.746Z,100243.59
2023-12-22T18:54:43.149Z,100243.59
2023-12-22T18:57:12.219Z,100252.03
2023-12-22T18:59:41.217Z,100248.16
2023-12-22T19:02:31.042Z,100256.63
2023-12-22T19:04:58.699Z,100259.25
2023-12-22T19:07:27.682Z,100264.56
2023-12-22T19:09:56.736Z,100255.88
2023-12-22T19:12:25.495Z,100265.09
2023-12-22T19:14:54.861Z,100277.09
2023-12-22T19:17:24.876Z,100292.31
2023-12-22T19:19:54.372Z,100292.31
2023-12-22T19:22:25.426Z,100292.31
2023-12-22T19:24:55.037Z,100287.00
2023-12-22T19:27:24.453Z,100292.81
2023-12-22T19:29:53.803Z,100306.78
2023-12-22T19:32:23.349Z,100303.41
2023-12-22T19:34:52.455Z,100316.66
2023-12-22T19:37:21.495Z,100315.97
2023-12-22T19:39:50.377Z,100321.28
2023-12-22T19:42:19.764Z,100329.69
2023-12-22T19:44:49.096Z,100335.72
2023-12-22T19:47:18.590Z,100349.00
2023-12-22T19:49:48.155Z,100360.81
2023-12-22T19:52:17.651Z,100355.50
2023-12-22T19:54:47.025Z,100378.16
2023-12-22T19:57:15.928Z,100382.03
2023-12-22T19:59:45.598Z,100387.31
2023-12-22T20:02:14.738Z,100388.53
2023-12-22T20:04:42.994Z,100388.53
2023-12-22T20:07:11.557Z,100384.47
2023-12-22T20:09:40.476Z,100397.22
2023-12-22T20:12:09.532Z,100403.03
2023-12-22T20:14:38.965Z,100421.59
2023-12-22T20:17:08.424Z,100409.53
2023-12-22T20:19:37.273Z,100402.81
2023-12-22T20:22:06.177Z,100420.13
2023-12-22T20:24:35.698Z,100414.84
2023-12-22T20:27:05.157Z,100408.81
2023-12-22T20:29:34.457Z,100413.41
2023-12-22T20:32:02.814Z,100413.41
2023-12-22T20:34:32.161Z,100422.78
2023-12-22T20:37:01.619Z,100424.00
2023-12-22T20:39:31.068Z,100422.56
2023-12-22T20:42:00.432Z,100427.88
2023-12-22T20:44:29.407Z,100433.88
2023-12-22T20:46:58.738Z,100428.59
2023-12-22T20:49:27.965Z,100437.03
2023-12-22T20:51:57.066Z,100443.78
2023-12-22T20:54:25.869Z,100458.25
2023-12-22T20:56:54.759Z,100453.66
2023-12-22T20:59:24.199Z,100449.59
2023-12-22T21:01:53.568Z,100446.22
2023-12-22T21:04:22.882Z,100451.53
2023-12-22T21:06:52.157Z,100454.66
2023-12-22T21:09:20.702Z,100455.41
2023-12-22T21:11:49.342Z,100475.88
2023-12-22T21:14:18.772Z,100470.56
2023-12-22T21:16:48.097Z,100475.16
2023-12-22T21:19:17.783Z,100471.31
2023-12-22T21:21:47.384Z,100481.91
2023-12-22T21:24:16.755Z,100484.28
2023-12-22T21:26:46.900Z,100497.09
2023-12-22T21:29:16.115Z,100496.34
2023-12-22T21:31:45.586Z,100500.19
2023-12-22T21:34:14.647Z,100502.84
2023-12-22T21:36:44.155Z,100521.41
2023-12-22T21:39:13.696Z,100514.69
2023-12-22T21:41:42.607Z,100519.97
2023-12-22T21:44:12.140Z,100525.28
2023-12-22T21:46:41.713Z,100526.00
2023-12-22T21:49:11.262Z,100534.47
2023-12-22T21:51:40.267Z,100549.13
2023-12-22T21:54:08.913Z,100551.09
2023-12-22T21:56:37.146Z,100553.00
2023-12-22T21:59:06.770Z,100566.25
2023-12-22T22:01:35.862Z,100555.44
2023-12-22T22:04:05.348Z,100560.25
2023-12-22T22:06:34.707Z,100554.22
2023-12-22T22:09:03.610Z,100558.06
2023-12-22T22:11:32.895Z,100547.47
2023-12-22T22:14:04.673Z,100570.13
2023-12-22T22:16:35.603Z,100573.28
2023-12-22T22:19:05.169Z,100578.09
2023-12-22T22:21:34.128Z,100575.44
2023-12-22T22:24:03.232Z,100573.28
2023-12-22T22:26:31.799Z,100579.28
2023-12-22T22:29:00.061Z,100574.72
2023-12-22T22:31:28.578Z,100581.94
2023-12-22T22:33:56.991Z,100583.88
2023-12-22T22:36:25.785Z,100577.84
2023-12-22T22:38:54.868Z,100590.63
2023-12-22T22:41:24.408Z,100588.47
2023-12-22T22:43:53.630Z,100583.88
2023-12-22T22:46:22.384Z,100587.72
2023-12-22T22:48:51.864Z,100593.75
2023-12-22T22:51:20.809Z,100612.31
2023-12-22T22:53:49.676Z,100620.25
2023-12-22T22:56:19.051Z,100618.81
2023-12-22T22:58:48.688Z,100622.72
2023-12-22T23:01:17.896Z,100630.66
2023-12-22T23:03:47.400Z,100631.84
2023-12-22T23:06:16.956Z,100638.63
2023-12-22T23:08:46.313Z,100643.69
2023-12-22T23:11:15.818Z,100647.75
2023-12-22T23:13:45.404Z,100630.44
2023-12-22T23:16:14.889Z,100641.75
2023-12-22T23:18:44.656Z,100649.72
2023-12-22T23:21:14.143Z,100635.72
2023-12-22T23:23:43.505Z,100630.44
2023-12-22T23:26:12.754Z,100634.28
2023-12-22T23:28:41.664Z,100644.88
2023-12-22T23:31:11.040Z,100642.22
2023-12-22T23:33:40.034Z,100659.34
2023-12-22T23:36:18.040Z,100660.78
2023-12-22T23:38:51.402Z,100660.78
2023-12-22T23:41:20.127Z,100663.44
2023-12-22T23:43:48.640Z,100653.34
2023-12-22T23:46:16.871Z,100648.28
2023-12-22T23:48:45.962Z,100654.03
2023-12-22T23:51:15.675Z,100654.03
2023-12-22T23:53:44.857Z,100659.34
2023-12-22T23:56:13.635Z,100664.66
2023-12-22T23:58:43.092Z,100664.66
